Skip Navigation LinksHome page > Weather > Current weather Skip Navigation Links

Current Weather

Leesburg Executive, Leesburg, Va.

For information only: do not use for flight planning or navigation.
Latest weather
Observation time Wednesday, January 27, 2021 10:35 AM EST
Local time Wednesday, January 27, 2021 10:59 AM EST
Flight conditions Visual Meteorological Conditions
Winds
Wind direction North (360°)
Wind speed 13 mph
Wind gusting to 22 mph
Visibility 10 mi.
Sky condition
Ceiling 4,200 ft. broken clouds
Cloud layer broken clouds 4,200 ft.
Temperature 37°F
Dewpoint 28°F
Altimeter 30.12 in.Hg
Derived measurements
Relative humidity 70%
Wind chill 29°F
Density altitude -1215 ft.
Remarks
Fully automated report.
Automated weather observing station with precipitation discriminator.
METAR KJYO 271535Z AUTO 36011G19KT 10SM BKN042 03/M02 A3012 RMK AO2

Settings

Location code

InnerDrive.Weather 4.0.6770.0 Release CLR 4.0.30319.42000
Copyright ©2018 Inner Drive Technology. All rights reserved. Portions Copyright ©1986-2018 David Braverman.

Find weather

Site navigation


Skip Navigation Links

Place info

Page info

PayPal - The safer, easier way to pay online!

Return home.

Copyright ©2021 Inner Drive Technology. Purveyors of fine, hand-crafted computer software. Page printed 2021-01-27T15:59:21 UTC.